Friday, November 24, 2017, 8:11 AM EST
Back to Local

KAQW, N Adams Harriman-and-west

Location: North Adams, MA, United States Lat: 42.7
Local Time: 8:11 AM EST (13:11 GMT) Lon: -73.167
Time Zone: US/Eastern Elev: 652 ft

Show me the last for .
Show Decoded

2017-11-24 07:52 METAR KAQW 241252Z AUTO 00000KT 10SM FEW036 BKN050 M03/M04 A3000 RMK AO2 SLP167
                 T10281044 =
2017-11-24 06:52 METAR KAQW 241152Z AUTO 00000KT 10SM CLR M04/M06 A2999 RMK AO2 SLP164 T10441061
                 10011 21044 53009 =
2017-11-24 05:52 METAR KAQW 241052Z AUTO 00000KT 10SM CLR M04/M06 A2997 RMK AO2 SLP159 T10391056
                 $ =
2017-11-24 04:52 METAR KAQW 240952Z AUTO 11003KT 10SM CLR M02/M06 A2997 RMK AO2 SLP157 T10221056
                 $ =
2017-11-24 03:52 METAR KAQW 240852Z AUTO 27007KT 10SM BKN036 01/M06 A2996 RMK AO2 SLP152
                 T00061056 58005 $ =
2017-11-24 02:52 METAR KAQW 240752Z AUTO 00000KT 10SM BKN038 M02/M04 A2997 RMK AO2 SLP157
                 T10171044 $ =
2017-11-24 01:52 METAR KAQW 240652Z AUTO 00000KT 10SM SCT033 OVC044 M02/M04 A2997 RMK AO2 SLP158
                 T10221044 $ =
2017-11-24 00:52 METAR KAQW 240552Z AUTO 00000KT 10SM SCT035 OVC060 M03/M05 A2997 RMK AO2 SLP158
                 T10281050 11017 21039 58001 $ =
2017-11-23 23:52 METAR KAQW 240452Z AUTO 00000KT 10SM OVC065 M03/M04 A2998 RMK AO2 SLP159
                 T10281044 400171039 $ =
2017-11-23 22:52 METAR KAQW 240352Z AUTO 00000KT 10SM BKN036 M03/M06 A2998 RMK AO2 SLP160
                 T10331056 $ =
2017-11-23 21:52 METAR KAQW 240252Z AUTO 00000KT 10SM BKN090 M03/M06 A2998 RMK AO2 SLP160
                 T10281061 58002 $ =
2017-11-23 20:52 METAR KAQW 240152Z AUTO 00000KT 10SM OVC095 M02/M06 A2999 RMK AO2 SLP164
                 T10171061 $ =
2017-11-23 19:52 METAR KAQW 240052Z AUTO 00000KT 10SM BKN038 OVC095 M03/M06 A2999 RMK AO2 SLP165
                 T10281061 $ =
2017-11-23 18:52 METAR KAQW 232352Z AUTO 00000KT 10SM CLR M03/M07 A2998 RMK AO2 SLP162 T10281067
                 10011 21028 58001 $ =
2017-11-23 17:52 METAR KAQW 232252Z AUTO 00000KT 10SM CLR M02/M07 A2999 RMK AO2 SLP163 T10171067
                 $ =
2017-11-23 16:52 METAR KAQW 232152Z AUTO 00000KT 10SM CLR M01/M07 A2999 RMK AO2 SLP164 T10061072
                 $ =
2017-11-23 15:52 METAR KAQW 232052Z AUTO VRB05KT 10SM CLR 01/M07 A2999 RMK AO2 SLP163 T00061072
                 56009 $ =
2017-11-23 14:52 METAR KAQW 231952Z AUTO 27004KT 10SM SCT100 01/M08 A2999 RMK AO2 SLP163
                 T00061078 $ =
2017-11-23 13:52 METAR KAQW 231852Z AUTO 33006KT 10SM CLR 01/M08 A3001 RMK AO2 SLP169 T00111078 $
                 =
2017-11-23 12:52 METAR KAQW 231752Z AUTO 32007KT 10SM CLR 01/M08 A3001 RMK AO2 SLP172 T00111083
                 10017 21033 58020 $ =
2017-11-23 08:52 METAR KAQW 231352Z AUTO 28006KT 10SM CLR M02/M08 A3007 RMK AO2 SLP191 T10221083
                 =
2017-11-23 08:38 METAR KAQW 231338Z AUTO 28008KT 10SM SCT028 M02/M09 A3008 RMK AO2 T10221089 =

Support USWX by starting your Amazon purchase here.